Time;durP1;ratioP1;P1;durP2;ratioP2;P2;SDS_P1;SDS_P2;PMS_P1;PMS_P2;Temp;Humidity;BMP_temperature;BMP_pressure;BME280_temperature;BME280_humidity;BME280_pressure;Samples;Min_cycle;Max_cycle;Signal;HPM_P1;HPM_P2
2022/11/08 00:01:31;;;;;;;3.92;0.40;;;12.90;99.90;;;;;;5036444;28;20132;-73
2022/11/08 00:03:58;;;;;;;8.40;0.57;;;12.80;99.90;;;;;;5034229;28;20503;-73
2022/11/08 00:14:36;;;;;;;5.35;0.22;;;12.60;99.90;;;;;;5035981;28;20064;-73
2022/11/08 00:17:02;;;;;;;3.72;0.35;;;12.60;99.90;;;;;;5035184;28;20473;-73
2022/11/08 00:19:27;;;;;;;5.63;0.00;;;12.50;99.90;;;;;;5035201;28;20508;-73
2022/11/08 00:21:53;;;;;;;10.82;0.55;;;12.50;99.90;;;;;;5035273;28;20033;-73
2022/11/08 00:24:18;;;;;;;5.15;0.85;;;12.40;99.90;;;;;;5034956;28;20069;-73
2022/11/08 00:26:44;;;;;;;5.38;0.85;;;12.40;99.90;;;;;;5034905;28;20040;-73
2022/11/08 00:29:09;;;;;;;7.50;0.55;;;12.40;99.90;;;;;;5034929;28;20056;-73
2022/11/08 00:31:35;;;;;;;8.43;0.95;;;12.30;99.90;;;;;;5033807;28;20018;-73
2022/11/08 00:34:00;;;;;;;5.85;0.70;;;12.30;99.90;;;;;;5035546;28;20090;-73
2022/11/08 00:36:26;;;;;;;1.60;0.00;;;12.30;99.90;;;;;;5034123;28;20083;-73
2022/11/08 00:38:52;;;;;;;1.30;0.20;;;12.30;99.90;;;;;;5034797;28;20025;-73
2022/11/08 00:41:17;;;;;;;5.20;0.20;;;12.20;99.90;;;;;;5033598;28;20017;-73
2022/11/08 00:43:43;;;;;;;2.42;0.10;;;12.20;99.90;;;;;;5034928;28;20119;-73
2022/11/08 00:46:08;;;;;;;8.20;0.10;;;12.20;99.90;;;;;;5034788;28;20029;-73
2022/11/08 00:48:34;;;;;;;5.05;0.25;;;12.10;99.90;;;;;;5033385;28;20025;-73
2022/11/08 00:51:05;;;;;;;1.55;0.00;;;12.10;99.90;;;;;;5035228;28;20469;-73
2022/11/08 00:53:31;;;;;;;5.22;0.25;;;12.10;99.90;;;;;;5034264;28;20022;-73
2022/11/08 00:56:04;;;;;;;3.08;0.22;;;12.00;99.90;;;;;;5033248;28;20112;-73
2022/11/08 00:58:29;;;;;;;7.97;0.10;;;12.00;99.90;;;;;;5033159;28;20064;-73
2022/11/08 01:00:55;;;;;;;2.30;0.10;;;12.00;99.90;;;;;;5034648;28;20057;-73
2022/11/08 01:03:22;;;;;;;3.08;0.13;;;12.00;99.90;;;;;;5034361;28;20034;-73
2022/11/08 01:05:50;;;;;;;3.58;0.10;;;12.00;99.90;;;;;;5033408;28;20049;-73
2022/11/08 01:08:17;;;;;;;4.43;0.10;;;12.00;99.90;;;;;;5032921;28;20465;-73
2022/11/08 01:10:45;;;;;;;1.55;0.00;;;12.00;99.90;;;;;;5034415;28;20029;-74
2022/11/08 01:13:11;;;;;;;5.82;0.10;;;12.00;99.90;;;;;;5034078;28;20071;-74
2022/11/08 01:15:40;;;;;;;3.38;0.10;;;12.50;99.90;;;;;;5034265;28;20033;-73
2022/11/08 01:18:07;;;;;;;6.60;1.55;;;11.80;99.90;;;;;;5033015;28;20561;-73
2022/11/08 01:20:38;;;;;;;9.43;1.25;;;12.10;99.90;;;;;;5032928;28;20507;-73
2022/11/08 01:23:03;;;;;;;5.07;0.38;;;11.80;99.90;;;;;;5034054;28;20108;-73
2022/11/08 01:25:29;;;;;;;30.38;0.90;;;11.70;99.90;;;;;;5032524;28;20566;-73
2022/11/08 01:27:54;;;;;;;5.75;0.68;;;11.70;99.90;;;;;;5033918;28;20476;-73
2022/11/08 01:30:20;;;;;;;7.05;0.43;;;11.60;99.90;;;;;;5032811;28;20028;-73
2022/11/08 01:32:46;;;;;;;2.67;0.38;;;11.60;99.90;;;;;;5033865;28;20028;-73
2022/11/08 01:35:11;;;;;;;5.30;0.10;;;11.80;99.90;;;;;;5034223;28;20057;-74
2022/11/08 01:37:37;;;;;;;5.57;0.50;;;11.50;99.90;;;;;;5032120;28;20037;-74
2022/11/08 01:40:03;;;;;;;3.03;0.35;;;11.60;99.90;;;;;;5033787;28;20392;-74
2022/11/08 01:42:30;;;;;;;5.82;0.28;;;11.40;99.90;;;;;;5032481;28;20033;-73
2022/11/08 01:45:05;;;;;;;10.07;0.88;;;11.40;99.90;;;;;;5033538;28;20036;-74
2022/11/08 01:47:31;;;;;;;4.20;0.68;;;11.40;99.90;;;;;;5033636;28;20026;-74
2022/11/08 01:50:09;;;;;;;3.05;0.20;;;11.40;99.90;;;;;;5033738;28;20093;-74
2022/11/08 01:52:39;;;;;;;5.25;0.38;;;11.30;99.90;;;;;;5032661;28;20022;-74
2022/11/08 01:55:07;;;;;;;6.97;0.43;;;11.30;99.90;;;;;;5032733;28;20021;-74
2022/11/08 01:57:47;;;;;;;3.88;0.38;;;11.30;99.90;;;;;;5033696;28;20026;-74
2022/11/08 02:00:14;;;;;;;13.38;0.70;;;11.20;99.90;;;;;;5033496;28;20021;-74
2022/11/08 02:02:42;;;;;;;6.38;0.40;;;11.20;99.90;;;;;;5033654;28;20021;-74
2022/11/08 02:05:25;;;;;;;4.07;0.40;;;11.30;99.90;;;;;;5032309;28;20080;-74
2022/11/08 02:07:56;;;;;;;7.97;0.25;;;11.30;99.90;;;;;;5033553;28;20480;-74
2022/11/08 02:10:25;;;;;;;14.63;0.47;;;11.30;99.90;;;;;;5034315;28;20021;-74
2022/11/08 02:12:52;;;;;;;;;;;11.30;99.90;;;;;;5033910;28;20017;-74
2022/11/08 02:15:20;;;;;;;4.65;0.28;;;11.30;99.90;;;;;;5033282;28;19912;-74
2022/11/08 02:17:45;;;;;;;1.10;0.10;;;11.50;99.90;;;;;;5033499;28;20060;-74
2022/11/08 02:20:11;;;;;;;6.72;0.47;;;11.30;99.90;;;;;;5032093;28;20026;-74
2022/11/08 02:22:44;;;;;;;6.28;0.90;;;11.30;99.90;;;;;;5033201;28;20104;-73
2022/11/08 02:25:10;;;;;;;5.80;0.52;;;11.30;99.90;;;;;;5033552;28;20083;-73
2022/11/08 02:27:35;;;;;;;2.75;0.20;;;11.30;99.90;;;;;;5031994;28;20029;-74
2022/11/08 02:30:01;;;;;;;2.65;0.30;;;11.40;99.90;;;;;;5033456;28;20095;-74
2022/11/08 02:32:39;;;;;;;2.17;0.38;;;11.30;99.90;;;;;;5033295;28;20017;-74
2022/11/08 02:35:13;;;;;;;5.25;0.10;;;11.30;99.90;;;;;;5032193;28;20049;-74
2022/11/08 02:37:39;;;;;;;4.03;0.45;;;11.30;99.90;;;;;;5033416;28;20064;-74
2022/11/08 02:40:05;;;;;;;15.65;0.65;;;11.30;99.90;;;;;;5033462;28;20032;-73
2022/11/08 02:42:31;;;;;;;4.07;0.68;;;11.30;99.90;;;;;;5033063;28;20065;-73
2022/11/08 02:44:56;;;;;;;4.03;0.55;;;11.20;99.90;;;;;;5033235;28;20068;-74
2022/11/08 02:47:23;;;;;;;3.60;0.10;;;11.20;99.90;;;;;;5033033;28;20025;-74
2022/11/08 02:49:48;;;;;;;10.93;1.25;;;11.20;99.90;;;;;;5033196;28;20029;-74
2022/11/08 02:52:14;;;;;;;3.50;0.30;;;11.10;99.90;;;;;;5037657;28;20028;-74
2022/11/08 02:54:40;;;;;;;4.15;0.00;;;11.10;99.90;;;;;;5035594;28;20025;-73
2022/11/08 02:57:05;;;;;;;5.25;0.25;;;11.10;99.90;;;;;;5037005;28;20026;-73
2022/11/08 02:59:31;;;;;;;1.67;0.40;;;11.10;99.90;;;;;;5036991;28;20067;-73
2022/11/08 03:01:56;;;;;;;4.60;0.30;;;11.10;99.90;;;;;;5036687;28;20026;-73
2022/11/08 03:04:22;;;;;;;1.00;0.00;;;11.00;99.90;;;;;;5035524;28;20022;-73
2022/11/08 03:06:47;;;;;;;1.25;0.20;;;11.60;99.90;;;;;;5035408;28;20064;-73
2022/11/08 03:09:13;;;;;;;2.65;0.52;;;11.00;99.90;;;;;;5035405;28;20075;-73
2022/11/08 03:11:39;;;;;;;5.78;0.43;;;11.00;99.90;;;;;;5036822;28;20037;-74
2022/11/08 03:14:04;;;;;;;4.47;0.35;;;11.00;99.90;;;;;;5036761;28;20014;-73
2022/11/08 03:16:30;;;;;;;2.53;0.88;;;11.20;99.90;;;;;;5036777;28;20021;-73
2022/11/08 03:18:55;;;;;;;2.33;0.17;;;11.00;99.90;;;;;;5035367;28;20025;-73
2022/11/08 03:21:21;;;;;;;1.25;0.17;;;10.90;99.90;;;;;;5035158;28;20026;-74
2022/11/08 03:23:46;;;;;;;6.32;0.20;;;10.90;99.90;;;;;;5035216;28;20106;-73
2022/11/08 03:26:12;;;;;;;4.47;0.35;;;10.90;99.90;;;;;;5036225;28;20030;-74
2022/11/08 03:28:37;;;;;;;5.65;0.22;;;10.80;99.90;;;;;;5035186;28;20025;-74
2022/11/08 03:31:03;;;;;;;2.90;0.20;;;10.80;99.90;;;;;;5035151;28;20098;-73
2022/11/08 03:33:29;;;;;;;3.45;0.10;;;10.70;99.90;;;;;;5036243;28;20076;-74
2022/11/08 03:35:54;;;;;;;4.78;0.77;;;10.80;99.90;;;;;;5034847;28;20104;-73
2022/11/08 03:38:20;;;;;;;0.80;0.10;;;;;;;;;;5036184;28;20025;-73
2022/11/08 03:40:46;;;;;;;4.97;0.35;;;10.80;99.90;;;;;;5034782;28;20029;-73
2022/11/08 03:43:12;;;;;;;4.85;0.65;;;11.30;99.90;;;;;;5036029;28;20021;-73
2022/11/08 03:45:37;;;;;;;4.63;0.57;;;11.00;99.90;;;;;;5034722;28;20064;-73
2022/11/08 03:48:03;;;;;;;3.15;0.20;;;11.00;99.90;;;;;;5035813;28;20021;-73
2022/11/08 03:50:29;;;;;;;4.95;0.52;;;10.80;99.90;;;;;;5036525;28;20097;-74
2022/11/08 03:52:55;;;;;;;3.72;0.15;;;10.80;99.90;;;;;;5034552;28;20045;-73
2022/11/08 03:55:24;;;;;;;6.90;0.68;;;10.80;99.90;;;;;;5036591;28;20083;-74
2022/11/08 03:57:50;;;;;;;5.05;0.20;;;10.80;99.90;;;;;;5034766;28;20034;-74
2022/11/08 04:03:38;;;;;;;1.95;0.17;;;10.80;99.90;;;;;;5036005;28;20024;-73
2022/11/08 04:06:04;;;;;;;2.65;0.28;;;10.80;99.90;;;;;;5034271;28;20025;-73
2022/11/08 04:08:29;;;;;;;5.25;0.85;;;10.80;99.90;;;;;;5035923;28;20036;-73
2022/11/08 04:10:56;;;;;;;3.63;0.10;;;10.90;99.90;;;;;;5035461;28;20080;-73
2022/11/08 04:16:07;;;;;;;3.20;0.52;;;10.80;99.90;;;;;;5035664;28;20155;-73
2022/11/08 04:21:18;;;;;;;4.70;0.20;;;10.80;99.90;;;;;;5035771;28;20037;-73
2022/11/08 04:23:45;;;;;;;6.78;0.40;;;10.80;99.90;;;;;;5035218;28;20021;-73
2022/11/08 04:26:11;;;;;;;4.28;0.47;;;10.80;99.90;;;;;;5034890;28;20424;-74
2022/11/08 04:28:38;;;;;;;3.30;0.43;;;10.80;99.90;;;;;;5033839;28;20017;-74
2022/11/08 04:31:16;;;;;;;3.50;0.43;;;10.80;99.90;;;;;;5033750;28;20534;-74
2022/11/08 04:33:41;;;;;;;2.80;0.08;;;10.80;99.90;;;;;;5033876;28;20036;-74
2022/11/08 04:36:13;;;;;;;3.85;0.10;;;10.90;99.90;;;;;;5034959;28;20049;-74
2022/11/08 04:38:38;;;;;;;5.28;0.00;;;10.80;99.90;;;;;;5035539;28;20025;-74
2022/11/08 04:41:12;;;;;;;3.53;0.28;;;10.80;99.90;;;;;;5034958;28;20496;-74
2022/11/08 04:43:38;;;;;;;4.40;0.90;;;10.80;99.90;;;;;;5033690;28;20025;-74
2022/11/08 04:46:06;;;;;;;4.80;0.52;;;10.80;99.90;;;;;;5034819;28;20029;-75
2022/11/08 04:48:32;;;;;;;1.55;0.13;;;10.80;99.90;;;;;;5033497;28;20022;-75
2022/11/08 04:51:03;;;;;;;0.50;0.00;;;10.80;99.90;;;;;;5034687;28;20033;-74
2022/11/08 04:53:28;;;;;;;2.35;0.20;;;10.70;99.90;;;;;;5034596;28;20087;-75
2022/11/08 04:56:02;;;;;;;3.42;0.00;;;10.80;99.90;;;;;;5034548;28;20017;-74
2022/11/08 04:58:32;;;;;;;5.28;0.30;;;10.70;99.90;;;;;;5034643;28;20032;-74
2022/11/08 05:01:00;;;;;;;1.83;0.00;;;10.80;99.90;;;;;;5035190;28;20021;-74
2022/11/08 05:03:25;;;;;;;6.10;0.05;;;11.50;99.90;;;;;;5034799;28;20028;-75
2022/11/08 05:05:51;;;;;;;1.85;0.10;;;10.80;99.90;;;;;;5033456;28;20025;-75
2022/11/08 05:08:20;;;;;;;1.38;0.08;;;10.80;99.90;;;;;;5033047;28;20117;-74
2022/11/08 05:10:45;;;;;;;5.18;0.10;;;10.90;99.90;;;;;;5034296;28;20052;-75
2022/11/08 05:13:11;;;;;;;3.50;0.25;;;10.80;99.90;;;;;;5033567;28;20038;-74
2022/11/08 05:15:36;;;;;;;1.92;0.32;;;10.80;99.90;;;;;;5034156;28;20018;-74
2022/11/08 05:18:02;;;;;;;1.95;0.10;;;10.80;99.90;;;;;;5034893;28;20028;-75
2022/11/08 05:23:25;;;;;;;3.28;0.95;;;10.90;99.90;;;;;;5032981;28;20116;-74
2022/11/08 05:25:53;;;;;;;1.58;0.00;;;10.90;99.90;;;;;;5034067;28;20091;-75
2022/11/08 05:28:19;;;;;;;3.10;0.50;;;;;;;;;;5033011;28;20030;-74
2022/11/08 05:30:51;;;;;;;3.63;0.35;;;11.00;99.90;;;;;;5033967;28;20036;-74
2022/11/08 05:33:16;;;;;;;3.10;0.00;;;11.00;99.90;;;;;;5034078;28;20100;-74
2022/11/08 05:35:42;;;;;;;2.83;0.08;;;10.90;99.90;;;;;;5035032;28;20079;-74
2022/11/08 05:38:10;;;;;;;3.97;0.00;;;10.90;99.90;;;;;;5032670;28;20384;-74
2022/11/08 05:40:36;;;;;;;3.88;0.98;;;11.10;99.90;;;;;;5033708;28;20025;-74
2022/11/08 05:43:04;;;;;;;4.97;0.10;;;10.90;99.90;;;;;;5032604;28;20029;-75
2022/11/08 05:45:30;;;;;;;1.67;0.00;;;10.90;99.90;;;;;;5033639;28;20060;-74
2022/11/08 05:47:56;;;;;;;3.10;0.03;;;10.90;99.90;;;;;;5032492;28;20033;-75
2022/11/08 05:50:23;;;;;;;2.22;0.00;;;10.90;99.90;;;;;;5033737;28;20024;-74
2022/11/08 05:52:49;;;;;;;5.72;0.20;;;10.90;99.90;;;;;;5034126;28;20017;-74
2022/11/08 05:55:15;;;;;;;3.75;0.20;;;10.70;99.90;;;;;;5033476;28;20022;-75
2022/11/08 05:57:43;;;;;;;5.18;0.25;;;10.70;99.90;;;;;;5032940;28;20032;-74
2022/11/08 06:00:11;;;;;;;1.60;0.13;;;11.30;99.90;;;;;;5033429;28;20036;-75
2022/11/08 06:02:36;;;;;;;1.65;0.10;;;10.70;99.90;;;;;;5033335;28;20024;-75
2022/11/08 06:05:02;;;;;;;1.35;0.05;;;10.70;99.90;;;;;;5032245;28;20013;-74
2022/11/08 06:07:28;;;;;;;4.72;0.35;;;10.70;99.90;;;;;;5031974;28;20048;-74
2022/11/08 06:09:53;;;;;;;4.35;0.55;;;10.70;99.90;;;;;;5033190;28;20021;-73
2022/11/08 06:12:19;;;;;;;3.60;0.57;;;10.70;99.90;;;;;;5033318;28;20056;-73
2022/11/08 06:14:45;;;;;;;1.45;0.20;;;10.70;99.90;;;;;;5031818;28;20018;-73
2022/11/08 06:17:10;;;;;;;4.63;0.00;;;10.70;99.90;;;;;;5033191;28;20099;-74
2022/11/08 06:19:36;;;;;;;2.45;0.03;;;10.70;99.90;;;;;;5031827;28;20167;-73
2022/11/08 06:22:02;;;;;;;3.05;0.20;;;10.70;99.90;;;;;;5033090;28;20029;-74
2022/11/08 06:24:27;;;;;;;1.98;0.32;;;10.70;99.90;;;;;;5035593;28;20029;-77
2022/11/08 06:26:53;;;;;;;1.98;0.15;;;10.70;99.90;;;;;;5037019;28;20037;-77
2022/11/08 06:29:18;;;;;;;3.30;0.10;;;12.60;99.90;;;;;;5037987;28;20477;-77
2022/11/08 06:31:44;;;;;;;3.28;0.15;;;10.70;99.90;;;;;;5037987;28;20503;-77
2022/11/08 06:34:09;;;;;;;0.95;0.00;;;10.70;99.90;;;;;;5038306;28;20113;-77
2022/11/08 06:36:35;;;;;;;3.28;0.10;;;10.70;99.90;;;;;;5038780;28;20028;-77
2022/11/08 06:39:01;;;;;;;1.30;0.10;;;10.60;99.90;;;;;;5037863;28;20025;-75
2022/11/08 06:41:28;;;;;;;1.17;0.10;;;10.70;99.90;;;;;;5036937;28;20033;-74
2022/11/08 06:43:54;;;;;;;5.72;0.10;;;10.70;99.90;;;;;;5036842;28;20067;-74
2022/11/08 06:46:20;;;;;;;5.53;0.68;;;10.60;99.90;;;;;;5036828;28;20037;-74
2022/11/08 06:48:46;;;;;;;2.05;0.00;;;10.60;99.90;;;;;;5036742;28;20026;-74
2022/11/08 06:51:11;;;;;;;2.15;0.10;;;10.60;99.90;;;;;;5036729;28;20036;-74
2022/11/08 06:53:38;;;;;;;3.15;0.95;;;10.60;99.90;;;;;;5036955;28;20101;-75
2022/11/08 06:56:04;;;;;;;3.13;0.55;;;10.60;99.90;;;;;;5035540;28;20117;-73
2022/11/08 06:58:29;;;;;;;4.15;0.03;;;10.70;99.90;;;;;;5035243;28;20069;-73
2022/11/08 07:00:55;;;;;;;2.13;0.13;;;10.60;99.90;;;;;;5035162;28;20025;-73
2022/11/08 07:03:21;;;;;;;4.22;0.00;;;10.60;99.90;;;;;;5037050;28;20421;-73
2022/11/08 07:05:46;;;;;;;2.03;0.00;;;10.70;99.90;;;;;;5036327;28;20052;-73
2022/11/08 07:08:12;;;;;;;2.95;0.10;;;10.70;99.90;;;;;;5035081;28;20018;-73
2022/11/08 07:10:39;;;;;;;0.75;0.00;;;10.70;99.90;;;;;;5035241;28;20388;-73
2022/11/08 07:13:12;;;;;;;1.88;0.10;;;10.60;99.90;;;;;;5035050;28;20018;-74
2022/11/08 07:15:40;;;;;;;3.13;0.10;;;10.70;99.90;;;;;;5036095;28;20022;-74
2022/11/08 07:18:09;;;;;;;6.00;0.00;;;10.70;99.90;;;;;;5034777;28;20024;-74
2022/11/08 07:20:35;;;;;;;3.67;0.38;;;10.70;99.90;;;;;;5034846;28;20025;-74
2022/11/08 07:23:01;;;;;;;3.53;0.17;;;10.70;99.90;;;;;;5034860;28;20492;-74
2022/11/08 07:25:28;;;;;;;1.75;0.15;;;10.70;99.90;;;;;;5068250;22;20048;-76
2022/11/08 07:27:55;;;;;;;5.63;0.30;;;10.70;99.90;;;;;;5056550;28;20052;-75
2022/11/08 07:30:21;;;;;;;8.18;0.10;;;10.70;99.90;;;;;;5056010;28;20029;-75
2022/11/08 07:32:47;;;;;;;2.50;0.00;;;10.80;99.90;;;;;;5054605;28;20040;-75
2022/11/08 07:35:12;;;;;;;2.25;0.25;;;10.80;99.90;;;;;;5053812;28;20025;-75
2022/11/08 07:37:38;;;;;;;0.85;0.10;;;10.90;99.90;;;;;;5055917;28;20029;-75
2022/11/08 07:40:04;;;;;;;3.15;0.00;;;10.90;99.90;;;;;;5055829;28;20033;-76
2022/11/08 07:42:29;;;;;;;1.23;0.05;;;10.90;99.90;;;;;;5071218;28;20039;-75
2022/11/08 07:44:55;;;;;;;2.40;0.28;;;11.20;99.90;;;;;;5055831;28;20108;-76
2022/11/08 07:47:20;;;;;;;2.92;0.00;;;11.00;99.90;;;;;;5056098;28;20490;-76
2022/11/08 07:49:46;;;;;;;0.03;0.00;;;11.10;99.90;;;;;;5056125;28;20505;-75
2022/11/08 07:52:12;;;;;;;1.98;0.10;;;11.20;99.90;;;;;;5054309;28;20494;-75
2022/11/08 07:54:38;;;;;;;1.88;0.00;;;11.30;99.90;;;;;;5054083;28;20025;-75
2022/11/08 07:57:03;;;;;;;0.40;0.00;;;11.40;99.90;;;;;;5055428;28;20028;-75
2022/11/08 07:59:29;;;;;;;3.38;0.55;;;11.40;99.90;;;;;;5056055;28;20048;-75
2022/11/08 08:01:54;;;;;;;1.80;0.00;;;11.50;99.90;;;;;;5055941;28;20472;-76
2022/11/08 08:04:20;;;;;;;0.90;0.00;;;11.50;99.90;;;;;;5054930;28;20014;-77
2022/11/08 08:06:45;;;;;;;2.75;0.20;;;11.50;99.90;;;;;;5055613;28;20057;-77
2022/11/08 08:09:11;;;;;;;1.90;0.00;;;11.50;99.90;;;;;;5054442;28;20471;-78
2022/11/08 08:11:37;;;;;;;2.63;0.13;;;11.60;99.90;;;;;;5054600;28;20021;-78
2022/11/08 08:14:02;;;;;;;7.57;0.32;;;11.70;99.90;;;;;;5056449;28;20017;-79
2022/11/08 08:16:28;;;;;;;1.63;0.38;;;11.70;99.90;;;;;;5056021;28;20095;-79
2022/11/08 08:18:53;;;;;;;1.58;0.00;;;11.80;99.90;;;;;;5054414;28;20125;-79
2022/11/08 08:21:19;;;;;;;1.42;0.00;;;11.80;99.90;;;;;;5056010;28;20036;-78
2022/11/08 08:23:44;;;;;;;0.52;0.00;;;11.90;99.90;;;;;;5054500;28;20025;-79
2022/11/08 08:26:10;;;;;;;8.20;0.55;;;11.90;99.90;;;;;;5055132;28;20043;-78
2022/11/08 08:28:35;;;;;;;0.93;0.00;;;12.00;99.90;;;;;;5053918;28;20071;-78
2022/11/08 08:31:03;;;;;;;3.60;0.10;;;12.10;99.90;;;;;;5054687;28;20056;-79
2022/11/08 08:33:28;;;;;;;1.98;0.10;;;12.10;99.90;;;;;;5055780;28;20041;-78
2022/11/08 08:35:55;;;;;;;0.73;0.10;;;12.10;99.90;;;;;;5054106;28;20032;-78
2022/11/08 08:38:20;;;;;;;1.05;0.00;;;12.20;99.90;;;;;;5053946;28;20044;-79
2022/11/08 08:40:46;;;;;;;1.63;0.00;;;13.90;99.90;;;;;;5054029;28;20033;-78
2022/11/08 08:43:12;;;;;;;2.78;0.08;;;12.20;99.90;;;;;;5055459;28;20472;-78
2022/11/08 08:45:37;;;;;;;1.35;0.00;;;12.30;99.90;;;;;;5054159;28;20029;-77
2022/11/08 08:48:03;;;;;;;4.40;0.32;;;12.40;99.90;;;;;;5052904;28;20024;-78
2022/11/08 08:50:31;;;;;;;1.38;0.10;;;12.30;99.90;;;;;;5054055;28;20035;-79
2022/11/08 08:53:01;;;;;;;2.53;0.00;;;12.40;99.90;;;;;;5054035;28;20017;-79
2022/11/08 08:55:28;;;;;;;1.35;0.00;;;12.40;99.90;;;;;;5054090;28;20025;-78
2022/11/08 08:57:54;;;;;;;2.42;0.00;;;14.00;99.90;;;;;;5054045;28;20203;-79
2022/11/08 09:00:20;;;;;;;3.88;0.25;;;12.50;99.90;;;;;;5055462;28;20021;-79
2022/11/08 09:02:45;;;;;;;0.10;0.00;;;12.50;99.90;;;;;;5070126;28;20037;-78
2022/11/08 09:05:12;;;;;;;2.13;0.00;;;12.50;99.90;;;;;;5054768;28;20060;-79
2022/11/08 09:07:37;;;;;;;0.63;0.10;;;12.60;99.90;;;;;;5054934;28;20414;-79
2022/11/08 09:10:04;;;;;;;1.73;0.10;;;12.60;99.90;;;;;;5054819;28;20013;-78
2022/11/08 09:12:29;;;;;;;0.80;0.10;;;12.60;99.90;;;;;;5054762;28;20025;-78
2022/11/08 09:14:55;;;;;;;0.20;0.00;;;13.10;99.90;;;;;;5053353;28;20028;-79
2022/11/08 09:17:21;;;;;;;2.17;0.20;;;12.60;99.90;;;;;;5053514;28;20078;-79
2022/11/08 09:19:47;;;;;;;0.50;0.10;;;13.40;99.90;;;;;;5055318;28;20519;-78
2022/11/08 09:22:12;;;;;;;1.98;0.05;;;12.60;99.90;;;;;;5070019;28;20022;-78
2022/11/08 09:24:38;;;;;;;1.70;0.00;;;12.70;99.90;;;;;;5054991;28;20029;-78
2022/11/08 09:27:03;;;;;;;1.17;0.00;;;12.80;99.90;;;;;;5054515;28;20033;-78
2022/11/08 09:29:33;;;;;;;2.05;0.10;;;13.20;99.90;;;;;;5053226;28;20074;-79
2022/11/08 09:32:00;;;;;;;2.80;0.10;;;12.80;99.90;;;;;;5054344;28;20112;-79
2022/11/08 09:34:25;;;;;;;0.52;0.00;;;13.40;99.90;;;;;;5052643;28;20021;-79
2022/11/08 09:36:51;;;;;;;2.53;0.00;;;12.90;99.90;;;;;;5053120;28;20075;-78
2022/11/08 09:39:17;;;;;;;3.30;0.00;;;12.90;99.90;;;;;;5053183;28;20035;-79
2022/11/08 09:41:54;;;;;;;2.70;0.10;;;12.90;99.90;;;;;;5052450;28;20032;-78
2022/11/08 09:44:35;;;;;;;2.78;0.10;;;12.90;99.90;;;;;;5052621;28;20033;-78
2022/11/08 09:47:12;;;;;;;1.52;0.17;;;12.90;99.90;;;;;;5053685;28;20021;-78
2022/11/08 09:49:44;;;;;;;0.85;0.10;;;13.00;99.90;;;;;;5069959;28;20021;-79
2022/11/08 09:52:20;;;;;;;1.30;0.00;;;13.30;99.90;;;;;;5052637;28;20017;-78
2022/11/08 09:54:48;;;;;;;1.05;0.20;;;13.50;99.90;;;;;;5069320;28;20115;-78
2022/11/08 09:57:49;;;;;;;3.00;0.00;;;13.60;99.90;;;;;;5052545;28;20112;-78
2022/11/08 10:00:15;;;;;;;0.88;0.00;;;13.70;99.90;;;;;;5054453;28;20031;-78
2022/11/08 10:02:41;;;;;;;0.73;0.10;;;13.70;99.90;;;;;;5052307;28;20025;-78
2022/11/08 10:05:14;;;;;;;1.20;0.00;;;13.70;99.90;;;;;;5053318;28;20100;-78
2022/11/08 10:07:49;;;;;;;1.65;0.00;;;13.80;99.90;;;;;;5053681;28;20028;-78
2022/11/08 10:11:09;;;;;;;1.50;0.00;;;13.70;99.90;;;;;;5053728;28;20076;-78
2022/11/08 10:13:56;;;;;;;0.08;0.00;;;13.80;99.90;;;;;;5031568;28;20029;-78
2022/11/08 10:16:28;;;;;;;1.02;0.00;;;13.80;99.90;;;;;;5014830;28;20120;-79
2022/11/08 10:19:23;;;;;;;2.22;0.20;;;13.90;99.90;;;;;;5038453;28;20112;-78
2022/11/08 10:21:58;;;;;;;1.85;0.00;;;13.90;99.90;;;;;;5052164;28;20037;-78
2022/11/08 10:24:34;;;;;;;5.88;0.10;;;14.00;99.90;;;;;;5052202;28;20071;-78
2022/11/08 10:27:01;;;;;;;4.78;0.30;;;14.00;99.90;;;;;;5053299;28;20036;-78
2022/11/08 10:29:35;;;;;;;6.18;0.08;;;14.20;99.90;;;;;;5052019;28;20028;-78
2022/11/08 10:32:21;;;;;;;1.05;0.00;;;14.00;99.90;;;;;;5052170;28;20112;-79
2022/11/08 10:34:57;;;;;;;1.35;0.00;;;13.90;99.90;;;;;;5051792;28;20048;-78
2022/11/08 10:37:24;;;;;;;0.28;0.00;;;14.00;99.90;;;;;;5051961;28;20028;-78
2022/11/08 10:40:36;;;;;;;1.95;0.22;;;13.90;99.90;;;;;;5068575;28;20381;-78
2022/11/08 10:43:08;;;;;;;0.50;0.10;;;13.90;99.90;;;;;;5053142;28;20025;-79
2022/11/08 10:45:34;;;;;;;0.95;0.00;;;13.80;99.90;;;;;;5051688;28;20052;-78
2022/11/08 10:48:00;;;;;;;2.78;0.00;;;13.90;99.90;;;;;;5051750;28;20076;-78
2022/11/08 10:50:39;;;;;;;0.22;0.00;;;13.90;99.90;;;;;;5052003;28;20075;-78
2022/11/08 10:53:15;;;;;;;4.22;0.10;;;13.90;99.90;;;;;;5051801;28;20017;-78
2022/11/08 10:55:50;;;;;;;0.63;0.00;;;13.90;99.90;;;;;;5052912;28;20071;-78
2022/11/08 10:58:29;;;;;;;2.97;0.52;;;14.00;99.90;;;;;;5052998;28;20515;-78
2022/11/08 11:01:01;;;;;;;0.52;0.00;;;14.10;99.90;;;;;;5052896;28;20029;-78
2022/11/08 11:03:29;;;;;;;1.65;0.00;;;14.10;99.90;;;;;;5068417;28;20644;-78
2022/11/08 11:06:02;;;;;;;1.08;0.00;;;14.20;99.90;;;;;;5052744;28;20139;-78
2022/11/08 11:08:27;;;;;;;0.10;0.00;;;14.10;99.90;;;;;;5051748;28;20494;-78
2022/11/08 11:10:54;;;;;;;1.77;0.00;;;14.30;99.90;;;;;;5052762;28;20021;-78
2022/11/08 11:13:26;;;;;;;1.98;0.00;;;14.50;99.90;;;;;;5057220;28;20070;-75
2022/11/08 11:16:02;;;;;;;0.40;0.00;;;14.50;99.90;;;;;;5055440;28;20035;-78
2022/11/08 11:18:36;;;;;;;2.20;0.00;;;14.50;99.90;;;;;;5056382;28;20024;-77
2022/11/08 11:21:04;;;;;;;1.50;0.00;;;14.60;99.90;;;;;;5055232;28;20078;-78
2022/11/08 11:23:46;;;;;;;1.02;0.00;;;14.60;99.90;;;;;;5056934;28;20028;-78
2022/11/08 11:26:28;;;;;;;1.38;0.00;;;14.70;99.90;;;;;;5056139;28;20450;-78
2022/11/08 11:29:05;;;;;;;1.45;0.10;;;14.80;99.90;;;;;;5054975;28;20399;-78
2022/11/08 11:31:40;;;;;;;1.88;0.20;;;14.80;99.90;;;;;;5056330;28;20025;-78
2022/11/08 11:34:18;;;;;;;0.93;0.00;;;14.90;99.90;;;;;;5056059;28;20035;-78
2022/11/08 11:36:59;;;;;;;2.70;0.47;;;14.90;99.90;;;;;;5054653;28;20017;-78
2022/11/08 11:39:36;;;;;;;3.80;0.00;;;14.90;99.90;;;;;;5056146;28;20033;-78
2022/11/08 11:42:27;;;;;;;1.02;0.00;;;15.70;99.90;;;;;;5054715;28;20021;-78
2022/11/08 11:45:01;;;;;;;0.75;0.30;;;14.90;99.90;;;;;;5054538;28;20029;-78
2022/11/08 11:47:32;;;;;;;1.30;0.35;;;15.00;99.90;;;;;;5055843;28;20021;-78
2022/11/08 11:50:11;;;;;;;1.75;0.28;;;14.90;99.90;;;;;;5054540;28;20017;-78
2022/11/08 11:52:37;;;;;;;0.30;0.13;;;14.90;99.90;;;;;;5056312;28;20022;-78
2022/11/08 11:55:02;;;;;;;0.55;0.00;;;15.00;99.90;;;;;;5055639;28;20364;-78
2022/11/08 11:57:45;;;;;;;1.27;0.00;;;15.00;99.90;;;;;;5055413;28;20033;-78
2022/11/08 12:00:13;;;;;;;2.88;0.10;;;15.00;99.90;;;;;;5055834;28;20098;-77
2022/11/08 12:03:18;;;;;;;2.25;0.00;;;15.10;99.90;;;;;;5055374;28;20116;-77
2022/11/08 12:06:03;;;;;;;2.17;0.10;;;15.20;99.90;;;;;;5055195;28;20060;-77
2022/11/08 12:08:53;;;;;;;0.20;0.10;;;15.40;99.90;;;;;;5054027;28;20067;-77
2022/11/08 12:11:33;;;;;;;2.50;0.03;;;15.60;99.90;;;;;;5055348;28;20029;-77
2022/11/08 12:14:07;;;;;;;1.35;0.00;;;15.90;99.90;;;;;;5053922;28;20395;-77
2022/11/08 12:17:01;;;;;;;2.63;0.20;;;16.00;99.90;;;;;;5055392;28;20033;-77
2022/11/08 12:19:39;;;;;;;3.80;0.32;;;16.20;99.90;;;;;;5055325;28;20021;-78
2022/11/08 12:22:22;;;;;;;2.88;0.15;;;16.20;99.90;;;;;;5055703;28;20025;-78
2022/11/08 12:25:03;;;;;;;1.00;0.60;;;16.20;99.90;;;;;;5055484;28;20052;-78
2022/11/08 12:27:36;;;;;;;2.58;0.45;;;16.20;99.90;;;;;;5054070;28;20025;-78
2022/11/08 12:30:14;;;;;;;2.13;0.10;;;16.20;99.90;;;;;;5055516;28;20032;-78
2022/11/08 12:32:55;;;;;;;7.25;0.20;;;16.10;99.90;;;;;;5054275;28;20063;-78
2022/11/08 12:35:35;;;;;;;0.20;0.03;;;16.10;99.90;;;;;;5054134;28;20029;-77
2022/11/08 12:38:30;;;;;;;2.00;0.00;;;16.20;99.90;;;;;;5055115;28;20444;-78
2022/11/08 12:41:15;;;;;;;0.85;0.08;;;16.20;99.90;;;;;;5055270;28;20059;-78
2022/11/08 12:44:01;;;;;;;3.10;0.10;;;16.20;99.90;;;;;;5070213;28;20119;-78
2022/11/08 12:46:35;;;;;;;1.65;0.10;;;16.30;99.90;;;;;;5054735;28;20070;-78
2022/11/08 12:49:35;;;;;;;2.00;0.13;;;16.50;99.90;;;;;;5054723;28;20040;-78
2022/11/08 12:52:29;;;;;;;5.10;0.10;;;16.70;99.90;;;;;;5055097;28;20482;-78
2022/11/08 12:55:01;;;;;;;1.65;0.00;;;16.60;99.90;;;;;;5053550;28;20063;-78
2022/11/08 12:57:29;;;;;;;4.03;0.30;;;16.50;99.90;;;;;;5053273;28;20508;-78
2022/11/08 13:00:16;;;;;;;0.73;0.00;;;16.50;99.90;;;;;;5053239;28;20028;-78
2022/11/08 13:02:43;;;;;;;1.50;0.00;;;16.60;99.90;;;;;;5053206;28;20029;-78
2022/11/08 13:05:24;;;;;;;0.90;0.15;;;16.60;99.90;;;;;;5054447;28;20028;-78
2022/11/08 13:08:18;;;;;;;2.05;0.30;;;16.50;99.90;;;;;;5054410;28;20047;-78
2022/11/08 13:11:04;;;;;;;0.10;0.00;;;16.20;99.90;;;;;;5054930;28;20476;-78
2022/11/08 13:13:45;;;;;;;0.65;0.00;;;16.20;99.90;;;;;;5054247;28;20104;-78
2022/11/08 13:16:19;;;;;;;1.65;0.10;;;16.10;99.90;;;;;;5054066;28;20032;-78
2022/11/08 13:18:53;;;;;;;1.27;0.32;;;16.10;99.90;;;;;;5052866;28;20447;-78
2022/11/08 13:21:24;;;;;;;0.43;0.20;;;16.00;99.90;;;;;;5054401;28;20025;-78